Time;durP1;ratioP1;P1;durP2;ratioP2;P2;SDS_P1;SDS_P2;PMS_P1;PMS_P2;Temp;Humidity;BMP_temperature;BMP_pressure;BME280_temperature;BME280_humidity;BME280_pressure;Samples;Min_cycle;Max_cycle;Signal;HPM_P1;HPM_P2
2021/07/25 00:01:54;;;;;;;12.93;11.63;;;23.40;96.50;;;;;;5072057;28;20505;-70
2021/07/25 00:04:19;;;;;;;12.37;11.20;;;23.40;96.50;;;;;;5072305;28;20431;-70
2021/07/25 00:06:45;;;;;;;12.97;11.67;;;23.30;96.40;;;;;;5071274;28;20671;-69
2021/07/25 00:09:10;;;;;;;11.83;10.70;;;23.30;96.50;;;;;;5071834;28;20177;-70
2021/07/25 00:11:36;;;;;;;14.53;11.80;;;23.30;97.00;;;;;;5072187;28;20460;-70
2021/07/25 00:14:04;;;;;;;12.70;11.50;;;23.20;96.70;;;;;;5070914;28;20186;-69
2021/07/25 00:16:30;;;;;;;13.73;12.33;;;23.20;96.70;;;;;;5072820;28;20168;-69
2021/07/25 00:18:56;;;;;;;12.03;10.83;;;23.20;96.80;;;;;;5054939;28;20820;-70
2021/07/25 00:21:22;;;;;;;12.53;11.30;;;23.10;96.90;;;;;;5072524;28;20412;-70
2021/07/25 00:23:49;;;;;;;13.77;11.50;;;23.10;96.90;;;;;;5072771;28;20405;-69
2021/07/25 00:26:17;;;;;;;12.87;11.67;;;23.00;97.00;;;;;;5071531;28;20599;-70
2021/07/25 00:28:46;;;;;;;12.10;10.90;;;23.00;97.10;;;;;;5072517;28;20904;-70
2021/07/25 00:31:12;;;;;;;12.63;11.40;;;23.00;97.20;;;;;;5072262;28;20430;-70
2021/07/25 00:33:37;;;;;;;12.33;11.13;;;23.00;97.20;;;;;;5072410;28;20424;-70
2021/07/25 00:36:06;;;;;;;12.50;11.30;;;22.90;97.30;;;;;;5070974;28;20567;-71
2021/07/25 00:38:31;;;;;;;12.50;11.30;;;22.80;97.40;;;;;;5071871;28;20157;-70
2021/07/25 00:41:03;;;;;;;12.83;11.33;;;22.80;97.50;;;;;;5072306;28;21060;-70
2021/07/25 00:43:29;;;;;;;11.43;10.37;;;22.80;97.60;;;;;;5071901;28;20407;-70
2021/07/25 00:45:56;;;;;;;12.50;11.27;;;22.80;97.70;;;;;;5071713;28;20823;-70
2021/07/25 00:48:25;;;;;;;12.90;11.70;;;22.70;97.60;;;;;;5071811;28;20421;-71
2021/07/25 00:50:53;;;;;;;14.03;10.27;;;22.70;97.60;;;;;;5072071;28;20432;-71
2021/07/25 00:53:19;;;;;;;13.03;11.73;;;22.70;97.70;;;;;;5072051;28;20900;-71
2021/07/25 00:55:45;;;;;;;11.67;10.57;;;22.70;97.70;;;;;;5071462;28;20544;-71
2021/07/25 00:58:11;;;;;;;12.40;10.23;;;22.60;97.90;;;;;;5071255;28;20404;-70
2021/07/25 01:00:36;;;;;;;12.33;10.77;;;22.60;97.90;;;;;;5072120;28;20526;-70
2021/07/25 01:03:10;;;;;;;11.33;10.23;;;22.60;98.00;;;;;;5071528;28;20188;-69
2021/07/25 01:06:10;;;;;;;12.17;10.93;;;22.60;98.10;;;;;;5073125;28;20240;-69
2021/07/25 01:08:46;;;;;;;12.53;10.90;;;22.50;98.30;;;;;;5074574;28;20438;-69
2021/07/25 01:11:13;;;;;;;11.90;10.70;;;22.40;98.40;;;;;;5071247;28;20429;-69
2021/07/25 01:13:46;;;;;;;10.93;9.83;;;22.40;98.50;;;;;;5071987;28;20502;-70
2021/07/25 01:16:12;;;;;;;13.00;11.70;;;22.30;98.80;;;;;;5075119;28;20527;-70
2021/07/25 01:18:48;;;;;;;13.07;11.77;;;22.30;98.90;;;;;;5072917;28;20402;-70
2021/07/25 01:21:15;;;;;;;13.10;11.33;;;22.30;99.10;;;;;;5074505;28;20428;-70
2021/07/25 01:23:40;;;;;;;11.67;10.43;;;22.20;99.20;;;;;;5074700;28;20469;-70
2021/07/25 01:26:08;;;;;;;13.30;12.00;;;22.20;99.40;;;;;;5075217;28;20407;-70
2021/07/25 01:28:35;;;;;;;12.40;11.20;;;22.20;99.60;;;;;;5077810;28;20408;-70
2021/07/25 01:31:07;;;;;;;12.83;11.40;;;22.10;99.70;;;;;;5078130;28;20933;-70
2021/07/25 01:33:34;;;;;;;12.20;11.00;;;22.00;99.80;;;;;;5078113;28;20782;-70
2021/07/25 01:36:00;;;;;;;13.63;12.33;;;22.00;99.90;;;;;;5076543;28;20967;-70
2021/07/25 01:38:27;;;;;;;12.90;10.90;;;22.00;99.90;;;;;;5077660;28;20401;-70
2021/07/25 01:41:01;;;;;;;14.43;12.20;;;22.00;99.90;;;;;;5076975;28;20803;-70
2021/07/25 01:43:27;;;;;;;12.80;11.70;;;21.90;99.90;;;;;;5076831;28;20412;-70
2021/07/25 01:45:53;;;;;;;12.90;11.67;;;21.90;99.90;;;;;;5076058;28;20412;-71
2021/07/25 01:48:18;;;;;;;12.47;11.13;;;21.80;99.90;;;;;;5077411;28;20644;-70
2021/07/25 01:50:44;;;;;;;11.60;10.40;;;21.80;99.90;;;;;;5076933;28;20184;-70
2021/07/25 01:53:09;;;;;;;13.07;11.77;;;21.80;99.90;;;;;;5075246;28;20177;-70
2021/07/25 01:55:35;;;;;;;11.27;9.70;;;21.80;99.90;;;;;;5074388;28;20586;-70
2021/07/25 01:58:00;;;;;;;15.97;12.10;;;21.70;99.90;;;;;;5074356;28;20163;-70
2021/07/25 02:00:26;;;;;;;13.10;11.23;;;21.70;99.90;;;;;;5075511;28;20201;-70
2021/07/25 02:02:51;;;;;;;12.60;11.10;;;21.70;99.90;;;;;;5075216;28;20241;-70
2021/07/25 02:05:17;;;;;;;11.63;10.40;;;21.70;99.90;;;;;;5075074;28;20178;-70
2021/07/25 02:07:42;;;;;;;12.40;10.40;;;21.70;99.90;;;;;;5073797;28;20174;-70
2021/07/25 02:10:08;;;;;;;12.10;10.90;;;21.70;99.90;;;;;;5075170;28;20192;-70
2021/07/25 02:12:34;;;;;;;12.53;11.23;;;21.60;99.90;;;;;;5075398;28;20327;-71
2021/07/25 02:14:59;;;;;;;13.70;12.40;;;21.60;99.90;;;;;;5074959;28;20992;-70
2021/07/25 02:17:25;;;;;;;15.13;12.90;;;21.60;99.90;;;;;;5073969;28;20168;-70
2021/07/25 02:19:50;;;;;;;15.20;11.23;;;21.60;99.90;;;;;;5074843;28;20188;-70
2021/07/25 02:22:16;;;;;;;13.60;12.30;;;21.60;99.90;;;;;;5074659;28;20189;-70
2021/07/25 02:24:43;;;;;;;12.93;11.67;;;21.60;99.90;;;;;;5075327;28;20605;-69
2021/07/25 02:27:08;;;;;;;12.27;10.97;;;21.60;99.90;;;;;;5074929;28;20827;-69
2021/07/25 02:29:34;;;;;;;13.07;11.67;;;21.50;99.90;;;;;;5074660;28;20433;-70
2021/07/25 02:31:59;;;;;;;12.37;11.10;;;21.50;99.90;;;;;;5075177;28;20227;-70
2021/07/25 02:34:25;;;;;;;12.53;11.07;;;21.50;99.90;;;;;;5074535;28;20202;-69
2021/07/25 02:36:50;;;;;;;14.43;12.83;;;21.60;99.90;;;;;;5073983;28;20283;-70
2021/07/25 02:39:16;;;;;;;12.03;10.83;;;21.50;99.90;;;;;;5073614;28;20197;-70
2021/07/25 02:41:41;;;;;;;13.47;12.10;;;21.50;99.90;;;;;;5074132;28;20209;-70
2021/07/25 02:44:07;;;;;;;12.87;11.60;;;21.40;99.90;;;;;;5074078;28;20159;-70
2021/07/25 02:46:33;;;;;;;12.80;11.67;;;21.40;99.90;;;;;;5072612;28;20167;-70
2021/07/25 02:48:59;;;;;;;14.20;11.80;;;21.30;99.90;;;;;;5073495;28;20773;-69
2021/07/25 02:51:24;;;;;;;12.70;11.40;;;21.30;99.90;;;;;;5073601;28;20437;-70
2021/07/25 02:53:50;;;;;;;12.77;11.50;;;21.30;99.90;;;;;;5073521;28;20258;-70
2021/07/25 02:56:15;;;;;;;14.40;11.67;;;21.20;99.90;;;;;;5073421;28;20199;-70
2021/07/25 02:58:41;;;;;;;12.27;11.00;;;21.20;99.90;;;;;;5073363;28;20472;-70
2021/07/25 03:01:13;;;;;;;13.63;12.33;;;21.20;99.90;;;;;;5073183;28;20671;-70
2021/07/25 03:03:39;;;;;;;12.40;10.70;;;21.10;99.90;;;;;;5073054;28;20181;-70
2021/07/25 03:06:05;;;;;;;14.57;12.63;;;21.10;99.90;;;;;;5073170;28;20410;-70
2021/07/25 03:08:31;;;;;;;12.30;11.13;;;21.00;99.90;;;;;;5073248;28;20244;-70
2021/07/25 03:10:56;;;;;;;13.13;11.93;;;21.00;99.90;;;;;;5072972;28;20194;-70
2021/07/25 03:13:22;;;;;;;15.70;11.63;;;21.00;99.90;;;;;;5073082;28;20176;-70
2021/07/25 03:15:48;;;;;;;12.50;11.03;;;21.00;99.90;;;;;;5073021;28;20289;-70
2021/07/25 03:18:13;;;;;;;12.70;11.40;;;21.00;99.90;;;;;;5072635;28;20164;-70
2021/07/25 03:20:39;;;;;;;15.03;12.70;;;20.90;99.90;;;;;;5072728;28;20190;-69
2021/07/25 03:23:05;;;;;;;14.30;11.73;;;20.90;99.90;;;;;;5071417;28;20223;-69
2021/07/25 03:25:30;;;;;;;13.77;11.93;;;20.90;99.90;;;;;;5072812;28;20179;-69
2021/07/25 03:27:56;;;;;;;14.50;13.00;;;20.90;99.90;;;;;;5072600;28;20539;-69
2021/07/25 03:30:21;;;;;;;13.70;11.93;;;20.90;99.90;;;;;;5074700;28;20192;-72
2021/07/25 03:32:47;;;;;;;14.80;12.47;;;20.80;99.90;;;;;;5076589;28;20674;-72
2021/07/25 03:35:12;;;;;;;13.67;12.27;;;20.80;99.90;;;;;;5076741;28;20602;-70
2021/07/25 03:37:44;;;;;;;13.03;11.70;;;20.80;99.90;;;;;;5077030;28;20196;-72
2021/07/25 03:40:10;;;;;;;12.80;11.20;;;20.80;99.90;;;;;;5076769;28;20195;-72
2021/07/25 03:42:37;;;;;;;17.00;12.60;;;20.80;99.90;;;;;;5075333;28;20471;-72
2021/07/25 03:45:03;;;;;;;16.90;12.50;;;20.80;99.90;;;;;;5076160;28;20412;-73
2021/07/25 03:47:29;;;;;;;12.97;11.70;;;20.80;99.90;;;;;;5075944;28;20420;-72
2021/07/25 03:49:55;;;;;;;13.63;12.20;;;20.80;99.90;;;;;;5075177;28;20433;-72
2021/07/25 03:52:20;;;;;;;15.47;12.47;;;20.80;99.90;;;;;;5074221;28;20176;-72
2021/07/25 03:54:46;;;;;;;12.70;11.40;;;20.80;99.90;;;;;;5075624;28;20615;-72
2021/07/25 03:57:12;;;;;;;13.07;11.67;;;20.80;99.90;;;;;;5075542;28;20155;-72
2021/07/25 03:59:38;;;;;;;13.33;12.03;;;20.70;99.90;;;;;;5075665;28;20461;-72
2021/07/25 04:02:04;;;;;;;13.27;11.97;;;20.80;99.90;;;;;;5074974;28;20433;-70
2021/07/25 04:04:30;;;;;;;12.50;11.03;;;20.80;99.90;;;;;;5074936;28;20187;-72
2021/07/25 04:06:55;;;;;;;14.50;13.00;;;20.80;99.90;;;;;;5075010;28;20414;-72
2021/07/25 04:09:21;;;;;;;13.43;11.80;;;20.80;99.90;;;;;;5075250;28;20450;-72
2021/07/25 04:11:55;;;;;;;14.03;12.37;;;20.70;99.90;;;;;;5075283;28;20186;-72
2021/07/25 04:14:23;;;;;;;13.27;11.97;;;20.80;99.90;;;;;;5074913;28;20201;-72
2021/07/25 04:16:49;;;;;;;13.37;11.40;;;20.80;99.90;;;;;;5074683;28;20429;-72
2021/07/25 04:19:16;;;;;;;12.93;11.53;;;20.80;99.90;;;;;;5057147;28;20433;-72
2021/07/25 04:21:41;;;;;;;15.20;13.03;;;20.80;99.90;;;;;;5074320;28;20975;-72
2021/07/25 04:24:07;;;;;;;18.60;12.00;;;20.80;99.90;;;;;;5074990;28;20514;-72
2021/07/25 04:26:33;;;;;;;12.90;11.60;;;20.80;99.90;;;;;;5074784;28;20170;-72
2021/07/25 04:28:59;;;;;;;13.20;11.40;;;20.80;99.90;;;;;;5074057;28;20190;-72
2021/07/25 04:31:25;;;;;;;14.80;12.30;;;20.80;99.90;;;;;;5074853;28;20410;-71
2021/07/25 04:33:53;;;;;;;12.30;11.20;;;20.80;99.90;;;;;;5073670;28;20433;-71
2021/07/25 04:36:29;;;;;;;13.90;12.13;;;20.80;99.90;;;;;;5075433;28;20606;-71
2021/07/25 04:38:55;;;;;;;12.03;10.93;;;20.90;99.90;;;;;;5075333;28;20629;-72
2021/07/25 04:41:24;;;;;;;17.53;12.70;;;20.90;99.90;;;;;;5075285;28;20503;-72
2021/07/25 04:43:58;;;;;;;14.07;12.23;;;21.00;99.90;;;;;;5074293;28;20416;-72
2021/07/25 04:46:28;;;;;;;15.57;11.93;;;21.00;99.90;;;;;;5074977;28;20426;-72
2021/07/25 04:49:10;;;;;;;12.23;11.03;;;21.10;99.90;;;;;;5074812;28;20414;-72
2021/07/25 04:51:40;;;;;;;12.43;11.07;;;21.10;99.90;;;;;;5075196;28;20451;-72
2021/07/25 04:54:08;;;;;;;14.10;12.60;;;21.10;99.90;;;;;;5075514;28;20404;-72
2021/07/25 04:57:02;;;;;;;14.10;11.93;;;21.10;99.90;;;;;;5075174;28;20890;-72
2021/07/25 04:59:46;;;;;;;13.83;12.27;;;21.10;99.90;;;;;;5074073;28;20440;-72
2021/07/25 05:02:14;;;;;;;18.80;12.33;;;21.00;99.90;;;;;;5080986;28;20406;-72
2021/07/25 05:04:40;;;;;;;13.30;11.70;;;21.10;99.90;;;;;;5082059;28;20418;-72
2021/07/25 05:07:10;;;;;;;12.20;11.10;;;21.10;99.90;;;;;;5081700;28;20414;-72
2021/07/25 05:09:36;;;;;;;13.83;12.23;;;21.20;99.90;;;;;;5081747;28;20266;-72
2021/07/25 05:12:12;;;;;;;13.90;12.47;;;21.20;99.90;;;;;;5079413;28;20405;-71
2021/07/25 05:15:01;;;;;;;12.70;10.63;;;21.20;99.90;;;;;;5083357;28;20224;-72
2021/07/25 05:17:49;;;;;;;15.97;12.83;;;21.30;99.90;;;;;;5080371;28;20400;-72
2021/07/25 05:20:15;;;;;;;14.60;12.77;;;21.20;99.90;;;;;;5080791;28;20472;-73
2021/07/25 05:23:01;;;;;;;13.10;11.80;;;21.20;99.90;;;;;;5079515;28;20401;-72
2021/07/25 05:25:29;;;;;;;12.30;11.00;;;21.20;99.90;;;;;;5083073;28;20438;-72
2021/07/25 05:27:56;;;;;;;13.20;11.57;;;21.30;99.90;;;;;;5082367;28;20436;-73
2021/07/25 05:30:23;;;;;;;16.60;12.40;;;21.40;99.90;;;;;;5082703;28;20425;-72
2021/07/25 05:32:49;;;;;;;14.10;11.80;;;21.50;99.90;;;;;;5079616;28;20981;-72
2021/07/25 05:35:15;;;;;;;16.87;12.00;;;21.40;99.90;;;;;;5081867;28;20437;-72
2021/07/25 05:37:41;;;;;;;12.50;11.30;;;21.40;99.90;;;;;;5082410;28;20403;-72
2021/07/25 05:40:08;;;;;;;13.20;11.90;;;21.70;99.90;;;;;;5079347;28;20424;-72
2021/07/25 05:42:34;;;;;;;16.20;12.50;;;22.20;99.90;;;;;;5078409;28;20170;-72
2021/07/25 05:44:59;;;;;;;15.03;11.77;;;22.80;99.90;;;;;;5077316;28;20408;-72
2021/07/25 05:47:25;;;;;;;13.57;10.80;;;23.30;99.90;;;;;;5077242;28;20422;-71
2021/07/25 05:49:50;;;;;;;12.07;10.87;;;23.40;99.90;;;;;;5078632;28;20189;-70
2021/07/25 05:52:17;;;;;;;12.50;11.00;;;23.60;99.90;;;;;;5080585;28;20193;-71
2021/07/25 05:54:42;;;;;;;12.23;11.03;;;23.90;99.90;;;;;;5081050;28;20199;-72
2021/07/25 05:57:08;;;;;;;11.80;10.67;;;24.10;99.90;;;;;;5080865;28;20403;-72
2021/07/25 05:59:34;;;;;;;12.23;11.03;;;24.60;99.90;;;;;;5080523;28;20183;-71
2021/07/25 06:02:01;;;;;;;13.20;12.00;;;25.10;99.90;;;;;;5082429;28;20406;-71
2021/07/25 06:04:27;;;;;;;12.77;11.47;;;25.20;99.90;;;;;;5082220;28;20251;-71
2021/07/25 06:06:53;;;;;;;13.67;12.27;;;25.10;99.90;;;;;;5082221;28;20410;-71
2021/07/25 06:09:19;;;;;;;11.90;10.70;;;25.20;99.90;;;;;;5082340;28;20214;-72
2021/07/25 06:11:44;;;;;;;12.10;11.00;;;25.60;99.90;;;;;;5082069;28;20420;-72
2021/07/25 06:14:11;;;;;;;11.40;10.20;;;25.60;99.90;;;;;;5080075;28;20172;-74
2021/07/25 06:16:36;;;;;;;12.13;10.53;;;26.10;99.90;;;;;;5077046;28;20544;-72
2021/07/25 06:19:02;;;;;;;12.47;11.27;;;26.40;99.90;;;;;;5079978;28;20902;-72
2021/07/25 06:21:27;;;;;;;12.13;11.03;;;26.00;99.90;;;;;;5078271;28;20176;-72
2021/07/25 06:23:53;;;;;;;12.73;11.40;;;26.10;99.90;;;;;;5079872;28;20193;-73
2021/07/25 06:26:19;;;;;;;14.50;12.57;;;26.70;99.90;;;;;;5079710;28;20659;-72
2021/07/25 06:28:45;;;;;;;11.87;10.87;;;27.40;99.90;;;;;;5079041;28;20189;-72
2021/07/25 06:31:12;;;;;;;11.97;10.90;;;26.90;99.90;;;;;;5079411;28;20185;-73
2021/07/25 06:33:37;;;;;;;11.50;10.40;;;27.10;99.90;;;;;;5077396;28;20400;-72
2021/07/25 06:36:04;;;;;;;12.33;11.03;;;27.30;99.70;;;;;;5078033;28;20474;-72
2021/07/25 06:38:30;;;;;;;12.80;11.50;;;26.90;99.60;;;;;;5078043;28;20166;-71
2021/07/25 06:40:56;;;;;;;12.33;11.00;;;27.30;99.70;;;;;;5078077;28;20420;-71
2021/07/25 06:43:23;;;;;;;12.47;11.27;;;27.80;98.50;;;;;;5079266;28;20475;-71
2021/07/25 06:45:49;;;;;;;11.93;10.60;;;27.50;98.80;;;;;;5077129;28;20472;-71
2021/07/25 06:48:20;;;;;;;12.27;10.97;;;28.20;98.40;;;;;;5075690;28;20490;-71
2021/07/25 06:50:48;;;;;;;12.67;10.07;;;28.10;97.60;;;;;;5075636;28;20851;-70
2021/07/25 06:53:14;;;;;;;11.77;10.70;;;28.60;96.70;;;;;;5075821;28;20412;-70
2021/07/25 06:55:40;;;;;;;11.53;10.60;;;28.10;97.10;;;;;;5075178;28;20468;-70
2021/07/25 06:58:05;;;;;;;10.57;9.60;;;28.60;96.20;;;;;;5074940;28;20640;-70
2021/07/25 07:00:31;;;;;;;11.93;10.83;;;28.60;95.80;;;;;;5074650;28;20228;-72
2021/07/25 07:02:57;;;;;;;11.53;10.53;;;28.60;95.50;;;;;;5074989;28;20189;-70
2021/07/25 07:05:24;;;;;;;12.13;11.13;;;28.50;95.60;;;;;;5075051;28;20586;-70
2021/07/25 07:07:51;;;;;;;11.00;10.03;;;28.30;96.00;;;;;;5074075;28;20407;-71
2021/07/25 07:10:19;;;;;;;11.97;10.93;;;28.40;96.40;;;;;;5074241;28;20769;-71
2021/07/25 07:12:46;;;;;;;11.67;10.57;;;28.20;95.80;;;;;;5074236;28;20450;-72
2021/07/25 07:15:12;;;;;;;11.80;10.73;;;28.20;96.10;;;;;;5074211;28;20452;-72
2021/07/25 07:17:39;;;;;;;10.50;9.60;;;27.90;96.30;;;;;;5074068;28;20430;-71
2021/07/25 07:20:09;;;;;;;13.50;12.20;;;28.20;96.00;;;;;;5073726;28;20834;-71
2021/07/25 07:22:35;;;;;;;11.40;10.30;;;28.70;95.80;;;;;;5072056;28;20436;-71
2021/07/25 07:25:02;;;;;;;10.53;9.73;;;29.20;96.50;;;;;;5072085;28;20784;-71
2021/07/25 07:27:28;;;;;;;11.43;10.33;;;29.60;93.80;;;;;;5073144;28;20447;-72
2021/07/25 07:29:55;;;;;;;10.87;9.43;;;29.50;93.80;;;;;;5072750;28;20424;-70
2021/07/25 07:32:21;;;;;;;10.50;9.63;;;28.90;94.60;;;;;;5071985;28;20589;-70
2021/07/25 07:34:46;;;;;;;10.70;9.70;;;29.80;93.90;;;;;;5071489;28;20496;-70
2021/07/25 07:37:12;;;;;;;11.07;10.07;;;30.10;93.00;;;;;;5071897;28;20192;-71
2021/07/25 07:39:45;;;;;;;15.20;11.17;;;29.90;92.90;;;;;;5073205;28;20680;-71
2021/07/25 07:42:11;;;;;;;11.60;10.50;;;30.40;92.40;;;;;;5072705;28;20234;-71
2021/07/25 07:44:38;;;;;;;11.40;10.50;;;30.00;92.30;;;;;;5072550;28;20443;-71
2021/07/25 07:47:04;;;;;;;11.43;10.43;;;30.00;92.20;;;;;;5072137;28;20408;-70
2021/07/25 07:49:30;;;;;;;10.60;9.60;;;29.40;93.00;;;;;;5072370;28;20424;-70
2021/07/25 07:51:55;;;;;;;13.23;11.77;;;29.40;92.90;;;;;;5072502;28;20499;-71
2021/07/25 07:54:21;;;;;;;11.03;10.03;;;29.30;93.20;;;;;;5072135;28;20629;-71
2021/07/25 07:56:47;;;;;;;11.30;10.13;;;29.20;91.70;;;;;;5072539;28;20162;-71
2021/07/25 07:59:12;;;;;;;11.30;10.30;;;28.70;93.50;;;;;;5072320;28;20166;-72
2021/07/25 08:01:38;;;;;;;12.10;10.90;;;28.10;94.40;;;;;;5072472;28;20542;-71
2021/07/25 08:04:04;;;;;;;10.93;9.93;;;27.80;95.20;;;;;;5071283;28;20217;-71
2021/07/25 08:06:29;;;;;;;11.27;10.20;;;28.10;94.90;;;;;;5072649;28;20170;-73
2021/07/25 08:08:54;;;;;;;11.80;10.70;;;28.30;94.70;;;;;;5074172;28;20299;-70
2021/07/25 08:11:20;;;;;;;10.27;9.37;;;29.20;93.80;;;;;;5073747;28;20672;-72
2021/07/25 08:13:46;;;;;;;10.13;9.23;;;30.30;92.60;;;;;;5073294;28;20173;-72
2021/07/25 08:16:12;;;;;;;10.17;9.27;;;30.90;91.30;;;;;;5071771;28;20201;-72
2021/07/25 08:18:38;;;;;;;9.87;9.00;;;31.00;91.70;;;;;;5073158;28;20171;-72
2021/07/25 08:21:04;;;;;;;11.40;10.30;;;31.80;90.20;;;;;;5073147;28;20863;-73
2021/07/25 08:23:30;;;;;;;11.03;9.93;;;31.40;90.70;;;;;;5073093;28;20409;-74
2021/07/25 08:25:56;;;;;;;11.30;10.30;;;30.40;91.70;;;;;;5073333;28;20415;-73
2021/07/25 08:28:21;;;;;;;11.37;10.37;;;30.70;91.00;;;;;;5071979;28;20442;-72
2021/07/25 08:30:47;;;;;;;11.43;10.40;;;30.70;90.40;;;;;;5072870;28;20190;-72
2021/07/25 08:33:13;;;;;;;9.60;8.80;;;31.40;90.70;;;;;;5072729;28;20570;-74
2021/07/25 08:35:39;;;;;;;11.03;10.13;;;31.30;90.40;;;;;;5074009;28;20197;-74
2021/07/25 08:38:04;;;;;;;11.77;9.73;;;31.40;89.40;;;;;;5076536;28;21002;-73
2021/07/25 08:40:31;;;;;;;11.90;10.90;;;31.20;90.00;;;;;;5077090;28;20186;-72
2021/07/25 08:43:07;;;;;;;11.30;10.30;;;31.00;90.10;;;;;;5076220;28;20177;-73
2021/07/25 08:45:38;;;;;;;9.83;8.93;;;32.10;89.40;;;;;;5076074;28;20758;-73
2021/07/25 08:48:18;;;;;;;11.43;10.30;;;32.00;89.70;;;;;;5076227;28;20404;-72
2021/07/25 08:51:01;;;;;;;10.97;9.90;;;32.10;89.90;;;;;;5076454;28;20449;-72
2021/07/25 08:53:27;;;;;;;10.70;9.80;;;31.50;88.80;;;;;;5076320;28;20400;-72
2021/07/25 08:55:54;;;;;;;10.97;10.07;;;31.70;88.40;;;;;;5074404;28;20448;-72
2021/07/25 08:58:23;;;;;;;11.70;10.80;;;31.70;90.60;;;;;;5075870;28;20464;-73
2021/07/25 09:00:51;;;;;;;10.43;9.63;;;31.80;89.50;;;;;;5075908;28;20421;-71
2021/07/25 09:03:17;;;;;;;11.03;10.07;;;32.10;87.10;;;;;;5075797;28;20458;-72
2021/07/25 09:05:43;;;;;;;12.10;11.10;;;31.60;87.60;;;;;;5076090;28;20404;-72
2021/07/25 09:08:09;;;;;;;11.87;10.67;;;31.70;88.80;;;;;;5076506;28;20403;-73
2021/07/25 09:10:35;;;;;;;10.70;9.80;;;30.80;90.30;;;;;;5076865;28;20432;-73
2021/07/25 09:13:01;;;;;;;11.13;10.27;;;31.10;91.10;;;;;;5075235;28;20223;-73
2021/07/25 09:15:30;;;;;;;10.03;9.10;;;31.60;90.80;;;;;;5076699;28;20193;-74
2021/07/25 09:17:59;;;;;;;10.90;10.10;;;31.90;90.80;;;;;;5076693;28;20438;-73
2021/07/25 09:20:31;;;;;;;10.90;9.80;;;31.70;91.90;;;;;;5076429;28;20435;-73
2021/07/25 09:23:04;;;;;;;11.10;10.10;;;31.90;90.50;;;;;;5076321;28;20503;-72
2021/07/25 09:25:33;;;;;;;10.73;9.90;;;31.00;92.30;;;;;;5074751;28;20404;-72
2021/07/25 09:27:58;;;;;;;11.10;10.07;;;30.50;92.70;;;;;;5075995;28;20404;-73
2021/07/25 09:30:28;;;;;;;12.17;9.60;;;30.80;92.20;;;;;;5074728;28;20436;-73
2021/07/25 09:32:54;;;;;;;11.00;10.00;;;32.00;90.10;;;;;;5075725;28;20234;-73
2021/07/25 09:35:34;;;;;;;10.20;9.40;;;32.40;88.10;;;;;;5075416;28;20944;-72
2021/07/25 09:38:02;;;;;;;10.63;9.77;;;32.20;87.70;;;;;;5075382;28;20193;-73
2021/07/25 09:40:31;;;;;;;10.37;9.43;;;32.40;86.20;;;;;;5075298;28;20793;-72
2021/07/25 09:43:18;;;;;;;10.00;9.20;;;32.30;86.40;;;;;;5074330;28;20835;-73
2021/07/25 09:45:55;;;;;;;11.00;10.00;;;32.20;87.00;;;;;;5075460;28;20407;-73
2021/07/25 09:48:34;;;;;;;10.20;9.30;;;32.30;86.10;;;;;;5074058;28;20907;-73
2021/07/25 09:51:02;;;;;;;10.87;9.97;;;32.00;87.00;;;;;;5075109;28;20986;-71
2021/07/25 09:53:44;;;;;;;10.20;9.30;;;32.30;85.10;;;;;;5075585;28;20519;-71
2021/07/25 09:56:23;;;;;;;10.33;9.33;;;32.40;85.10;;;;;;5074621;28;20459;-71
2021/07/25 09:58:49;;;;;;;11.33;10.03;;;32.90;84.90;;;;;;5078043;28;20412;-72
2021/07/25 10:01:37;;;;;;;9.23;8.33;;;33.10;82.90;;;;;;5078310;28;20424;-72
2021/07/25 10:04:21;;;;;;;11.53;10.53;;;32.60;83.90;;;;;;5078440;28;20835;-72
2021/07/25 10:06:49;;;;;;;9.90;9.13;;;32.30;84.00;;;;;;5078398;28;20388;-71
2021/07/25 10:09:17;;;;;;;11.53;10.53;;;31.80;85.60;;;;;;5078536;28;20404;-73
2021/07/25 10:11:48;;;;;;;11.60;10.60;;;31.70;85.90;;;;;;5078987;28;20772;-72
2021/07/25 10:14:17;;;;;;;11.43;10.53;;;31.80;86.30;;;;;;5078990;28;20392;-72
2021/07/25 10:16:44;;;;;;;11.17;10.10;;;30.70;87.70;;;;;;5078513;28;20466;-69
2021/07/25 10:19:11;;;;;;;10.70;9.70;;;30.70;88.10;;;;;;5078904;28;20782;-73
2021/07/25 10:21:37;;;;;;;12.63;10.63;;;30.70;88.80;;;;;;5079130;28;20393;-73
2021/07/25 10:24:03;;;;;;;11.00;10.03;;;30.80;89.10;;;;;;5078595;28;20436;-73
2021/07/25 10:26:29;;;;;;;12.93;11.80;;;30.60;88.60;;;;;;5079452;28;20400;-72
2021/07/25 10:28:57;;;;;;;13.47;12.37;;;30.40;89.40;;;;;;5079135;28;20392;-73
2021/07/25 10:31:24;;;;;;;11.50;10.50;;;30.20;89.50;;;;;;5076980;28;20407;-73
2021/07/25 10:33:51;;;;;;;11.40;10.50;;;30.50;90.10;;;;;;5075732;28;20462;-70
2021/07/25 10:36:21;;;;;;;12.67;10.50;;;30.50;89.00;;;;;;5078052;28;20490;-70
2021/07/25 10:38:47;;;;;;;11.40;10.40;;;30.40;89.90;;;;;;5076150;28;20827;-70
2021/07/25 10:41:20;;;;;;;11.97;10.97;;;30.20;90.50;;;;;;5074718;28;20439;-70
2021/07/25 10:43:46;;;;;;;11.20;10.13;;;30.00;90.30;;;;;;5076974;28;20458;-70
2021/07/25 10:46:20;;;;;;;11.50;10.40;;;30.20;90.10;;;;;;5077095;28;20400;-70
2021/07/25 10:49:00;;;;;;;11.70;10.50;;;30.10;90.60;;;;;;5076993;28;20914;-71
2021/07/25 10:51:30;;;;;;;11.80;10.70;;;30.00;90.80;;;;;;5075554;28;20400;-70
2021/07/25 10:54:23;;;;;;;12.50;11.30;;;30.10;90.60;;;;;;5074696;28;20409;-70
2021/07/25 10:57:03;;;;;;;13.47;12.27;;;29.90;91.20;;;;;;5073665;28;20918;-70
2021/07/25 10:59:50;;;;;;;12.50;11.40;;;29.70;91.50;;;;;;5074622;28;20428;-71
2021/07/25 11:02:21;;;;;;;11.70;10.60;;;29.90;91.50;;;;;;5075337;28;20404;-70
2021/07/25 11:04:50;;;;;;;12.13;10.93;;;30.00;91.40;;;;;;5075888;28;20411;-70
2021/07/25 11:07:22;;;;;;;12.73;11.50;;;30.00;91.60;;;;;;5072592;28;20415;-76
2021/07/25 11:09:59;;;;;;;11.23;10.27;;;29.90;91.80;;;;;;5072379;28;20463;-70
2021/07/25 11:12:26;;;;;;;12.40;11.20;;;29.80;92.40;;;;;;5076464;28;20443;-71
2021/07/25 11:14:59;;;;;;;14.33;13.03;;;29.70;91.80;;;;;;5073649;28;20452;-70
2021/07/25 11:17:47;;;;;;;11.43;10.23;;;29.80;92.10;;;;;;5072883;28;20404;-70
2021/07/25 11:20:39;;;;;;;13.80;12.47;;;29.70;91.50;;;;;;5073313;28;20431;-70
2021/07/25 11:23:19;;;;;;;11.90;10.90;;;29.70;91.60;;;;;;5074019;28;20498;-71
2021/07/25 11:25:46;;;;;;;11.67;10.67;;;29.90;91.50;;;;;;5075004;28;20402;-70
2021/07/25 11:28:39;;;;;;;12.17;11.00;;;29.90;91.50;;;;;;5075470;28;20419;-70
2021/07/25 11:31:10;;;;;;;12.50;11.40;;;29.70;91.30;;;;;;5074211;28;20482;-70
2021/07/25 11:33:43;;;;;;;12.83;11.60;;;29.80;91.50;;;;;;5075518;28;20405;-70
2021/07/25 11:36:11;;;;;;;12.77;11.57;;;29.50;91.40;;;;;;5074431;28;20800;-70
2021/07/25 11:38:38;;;;;;;12.60;11.60;;;29.60;91.20;;;;;;5075406;28;20803;-70
2021/07/25 11:41:05;;;;;;;11.73;10.67;;;29.80;91.50;;;;;;5071047;28;20951;-70
2021/07/25 11:44:13;;;;;;;13.40;12.20;;;30.00;91.60;;;;;;5073391;28;20420;-70
2021/07/25 11:46:46;;;;;;;11.63;10.63;;;30.00;91.30;;;;;;5071387;28;20408;-70
2021/07/25 11:49:28;;;;;;;11.97;10.77;;;30.50;91.50;;;;;;5073282;28;20499;-70
2021/07/25 11:52:01;;;;;;;12.47;11.33;;;30.70;91.00;;;;;;5073908;28;20424;-70
2021/07/25 11:54:31;;;;;;;14.20;12.03;;;30.70;91.20;;;;;;5072819;28;20409;-70
2021/07/25 11:57:00;;;;;;;11.87;10.77;;;30.60;90.60;;;;;;5074182;28;20786;-70
2021/07/25 11:59:27;;;;;;;12.20;11.20;;;30.80;90.40;;;;;;5075459;28;20865;-70
2021/07/25 12:01:52;;;;;;;12.27;11.27;;;30.90;90.50;;;;;;5073714;28;20404;-70
2021/07/25 12:04:24;;;;;;;12.47;11.27;;;30.50;90.10;;;;;;5072886;28;20425;-70
2021/07/25 12:07:07;;;;;;;13.77;12.50;;;30.70;90.20;;;;;;5073405;28;20177;-70
2021/07/25 12:09:34;;;;;;;12.40;11.23;;;30.90;90.40;;;;;;5074167;28;20429;-71
2021/07/25 12:12:06;;;;;;;12.23;11.13;;;30.70;90.30;;;;;;5073946;28;20768;-72
2021/07/25 12:14:34;;;;;;;11.97;10.80;;;30.70;89.30;;;;;;5073066;28;20487;-71
2021/07/25 12:17:00;;;;;;;11.97;10.87;;;30.90;90.00;;;;;;5073581;28;20902;-70
2021/07/25 12:19:25;;;;;;;13.13;11.90;;;30.70;90.00;;;;;;5074265;28;20429;-69
2021/07/25 12:22:06;;;;;;;12.77;11.67;;;30.60;90.40;;;;;;5071929;28;20178;-69
2021/07/25 12:24:34;;;;;;;12.80;11.77;;;30.90;90.20;;;;;;5072344;28;20632;-69
2021/07/25 12:27:02;;;;;;;13.33;11.13;;;31.00;90.20;;;;;;5072887;28;20462;-70
2021/07/25 12:30:06;;;;;;;13.40;12.00;;;31.10;89.90;;;;;;5072763;28;20470;-69
2021/07/25 12:32:33;;;;;;;12.50;11.33;;;31.00;90.20;;;;;;5072308;28;20759;-69
2021/07/25 12:35:17;;;;;;;11.77;10.80;;;30.90;90.10;;;;;;5072301;28;20451;-68
2021/07/25 12:37:56;;;;;;;13.33;11.93;;;31.10;89.70;;;;;;5071740;28;20443;-69